Wichita Mid Continent Airport
KICT : rendu visible

Aérodrome :











RETROUVEZ-NOUS SUR...

 
LOGIN :

S'inscrire | Disclaimer

   EN    FR    IT 

 









Légende :    VFR   VFR Marginal   IFR   IFR Intensif   IFR Très Intensif
Visi : 
Plafond : 
>= 8 km
>= 3000ft
5 à 8 km
1000 à 3000 ft
1500m à 5 km
500 à 1000 ft
800 à 1500m
200 à 500 ft
< 800m
< 200 ft
Symboles :   Orages  Brouillard  Fortes neiges  Fortes précipitations  Vent > 20 kt






- Altitude de l'aérodrome : 1333 ft
- Code IATA : ICT


KICT - Wichita Mid Continent

DERNIER METAR :
  • 281853Z 35008KT 10SM -RA BKN017 BKN050 OVC085 03/01 A2993 RMK AO2 SLP142 P0005 T00280006

METARs EXPIRÉS :
  • 281830Z 02013G22KT 4SM RA BR SCT021 BKN090 OVC100 02/01 A2993 RMK AO2 P0004 T00220006
  • 281753Z 03010KT 5SM -RA BR BKN020 OVC095 02/00 A2998 RMK AO2 SLP162 P0006 60007 T00170000 10017 20006 56021
  • 281653Z 04009KT 10SM -RA FEW031 OVC060 02/M01 A3000 RMK AO2 RAE29B48 SLP168 P0000 T00171006

TAF KICT
Valide du 28 à 18h jusqu'au 29 à 18h UTC


281731Z 2818/2918 01008KT P6SM -RA SCT015 OVC035
TEMPO 2818/2820 2SM -RA BR OVC015
FM282100 02008KT 3SM SHRA BR OVC008
FM290300 02015G23KT 3SM SHRA BR OVC003 WS020/03045KT
FM290900 36020G29KT 5SM RA BR OVC008
FM291200 36019G28KT 4SM RA BR OVC015
FM291400 36019G28KT P6SM OVC035
FM291600 35018G26KT P6SM RA SCT035
FIR KZKC / Amérique du Nord



MET'MAP, la Météo Aéronautique d'un coup d'oeil ! - Copyright ORBIFLY Décembre 2007 - Disclaimer

ORBIFLY MET'MAP TEAM :

Programmation & Développement : Alexandra Zaïnal
Sur une idée originale de : Baudouin d'Aumeries
Assistance à la programmation : Marc-Olivier Méhu
Soutien technique & logistique : Manuel Goepfert

Contact : metmap@orbifly.com




SOURCES & CREDITS :

   NOAA       Earth
Advisory